Time;durP1;ratioP1;P1;durP2;ratioP2;P2;SDS_P1;SDS_P2;PMS_P1;PMS_P2;Temp;Humidity;BMP_temperature;BMP_pressure;BME280_temperature;BME280_humidity;BME280_pressure;Samples;Min_cycle;Max_cycle;Signal;HPM_P1;HPM_P2
2022/11/18 00:01:05;;;;;;;2.70;0.82;;;;;;;18.01;47.12;99331.75;4998130;28;20041;-61
2022/11/18 00:03:30;;;;;;;2.28;1.08;;;;;;;17.97;46.37;99322.41;4999062;28;20030;-61
2022/11/18 00:05:56;;;;;;;2.15;1.00;;;;;;;17.97;46.77;99327.84;4998961;28;20030;-61
2022/11/18 00:08:22;;;;;;;11.18;1.25;;;;;;;17.97;46.59;99325.13;4998542;28;20034;-61
2022/11/18 00:10:48;;;;;;;3.10;1.00;;;;;;;17.96;47.03;99319.91;4982504;28;20045;-61
2022/11/18 00:16:11;;;;;;;4.32;0.77;;;;;;;17.94;46.70;99327.41;4998869;28;20511;-61
2022/11/18 00:18:37;;;;;;;4.57;0.82;;;;;;;17.93;46.58;99326.56;4981906;28;20038;-60
2022/11/18 00:21:09;;;;;;;3.75;0.93;;;;;;;17.94;47.04;99325.53;4998882;28;20028;-60
2022/11/18 00:23:34;;;;;;;4.35;1.30;;;;;;;17.92;47.40;99314.06;4982140;28;20060;-61
2022/11/18 00:26:04;;;;;;;6.88;0.70;;;;;;;17.90;47.07;99326.16;4997722;28;20069;-61
2022/11/18 00:28:30;;;;;;;4.40;1.08;;;;;;;17.86;47.19;99314.94;4997873;28;20042;-61
2022/11/18 00:31:21;;;;;;;3.25;0.70;;;;;;;17.91;47.48;99323.25;4999599;28;20542;-61
2022/11/18 00:33:47;;;;;;;10.50;1.00;;;;;;;17.93;46.91;99314.91;4995337;28;20030;-61
2022/11/18 00:36:12;;;;;;;2.38;0.95;;;;;;;17.92;46.63;99324.91;4981770;28;20056;-61
2022/11/18 00:38:38;;;;;;;3.97;0.60;;;;;;;17.94;46.85;99325.53;4998904;28;20041;-61
2022/11/18 00:41:06;;;;;;;8.68;1.60;;;;;;;17.93;47.48;99325.75;4998642;28;20031;-61
2022/11/18 00:43:32;;;;;;;3.65;1.13;;;;;;;17.91;47.38;99325.97;4998882;28;20047;-61
2022/11/18 00:45:57;;;;;;;2.90;0.77;;;;;;;17.91;47.01;99334.09;4998397;28;20034;-61
2022/11/18 00:48:23;;;;;;;1.65;0.55;;;;;;;17.94;47.40;99339.09;4998066;28;20022;-61
2022/11/18 00:50:50;;;;;;;1.77;1.02;;;;;;;17.95;46.75;99334.50;4998821;28;20109;-61
2022/11/18 00:53:16;;;;;;;2.75;1.00;;;;;;;17.97;47.27;99337.84;4998425;28;20045;-60
2022/11/18 00:55:42;;;;;;;4.05;0.90;;;;;;;17.96;46.61;99342.41;4998198;28;20117;-60
2022/11/18 00:58:07;;;;;;;3.70;0.77;;;;;;;17.92;46.97;99352.00;4998202;28;20027;-61
2022/11/18 01:00:33;;;;;;;1.42;0.93;;;;;;;17.90;46.38;99353.25;4999492;28;20064;-61
2022/11/18 01:02:58;;;;;;;7.07;0.95;;;;;;;17.86;47.21;99352.88;4998026;28;20388;-61
2022/11/18 01:05:23;;;;;;;10.63;1.60;;;;;;;17.81;47.30;99355.34;4996722;28;20042;-61
2022/11/18 01:07:49;;;;;;;3.67;0.80;;;;;;;17.79;46.61;99357.47;4997570;28;20035;-61
2022/11/18 01:10:15;;;;;;;2.13;0.77;;;;;;;17.76;46.58;99367.88;4997555;28;20117;-61
2022/11/18 01:15:24;;;;;;;7.25;1.05;;;;;;;17.71;46.74;99383.94;4998291;28;20077;-61
2022/11/18 01:17:49;;;;;;;6.75;1.27;;;;;;;17.67;47.27;99383.50;4997449;28;20030;-61
2022/11/18 01:20:15;;;;;;;5.90;0.90;;;;;;;17.67;47.16;99386.22;4997386;28;20121;-61
2022/11/18 01:22:40;;;;;;;3.70;1.45;;;;;;;17.64;47.28;99389.38;4997070;28;20050;-61
2022/11/18 01:25:06;;;;;;;2.72;0.73;;;;;;;17.61;47.71;99387.09;4997122;28;20504;-61
2022/11/18 01:27:31;;;;;;;2.50;0.45;;;;;;;17.65;47.16;99396.44;4997273;28;20050;-60
2022/11/18 01:29:56;;;;;;;1.45;0.70;;;;;;;17.64;46.80;99393.94;4997998;28;20026;-60
2022/11/18 01:32:22;;;;;;;6.05;1.08;;;;;;;17.60;47.30;99396.25;4998598;28;20519;-61
2022/11/18 01:34:47;;;;;;;3.90;0.57;;;;;;;17.62;47.72;99398.72;4997475;28;20117;-61
2022/11/18 01:37:13;;;;;;;1.67;0.70;;;;;;;17.61;46.96;99397.91;4981179;28;20041;-61
2022/11/18 01:39:38;;;;;;;9.98;1.42;;;;;;;17.63;47.30;99400.41;4996855;28;20031;-61
2022/11/18 01:42:03;;;;;;;1.60;0.88;;;;;;;17.62;47.45;99404.97;4997339;28;20026;-61
2022/11/18 01:44:51;;;;;;;4.80;0.70;;;;;;;17.66;46.95;99406.25;4998703;28;20055;-61
2022/11/18 01:47:16;;;;;;;2.35;0.55;;;;;;;17.62;46.85;99410.41;4998587;28;20038;-61
2022/11/18 01:49:41;;;;;;;5.65;0.77;;;;;;;17.60;47.25;99415.19;4997152;28;20092;-60
2022/11/18 01:52:07;;;;;;;4.55;0.95;;;;;;;17.61;47.07;99408.75;4998440;28;20496;-61
2022/11/18 01:54:35;;;;;;;4.72;1.15;;;;;;;17.60;47.64;99412.50;4980720;28;20120;-61
2022/11/18 01:57:04;;;;;;;5.43;0.77;;;;;;;17.58;47.19;99414.59;4997447;28;20030;-61
2022/11/18 01:59:33;;;;;;;4.25;0.88;;;;;;;17.57;46.44;99418.31;4997011;28;20026;-61
2022/11/18 02:02:00;;;;;;;7.35;0.68;;;;;;;17.55;47.17;99415.00;4996785;28;20139;-61
2022/11/18 02:04:26;;;;;;;1.58;0.73;;;;;;;17.54;47.10;99424.16;4997134;28;20139;-61
2022/11/18 02:06:53;;;;;;;5.20;0.88;;;;;;;17.53;46.28;99427.03;4996810;28;20030;-61
2022/11/18 02:09:18;;;;;;;2.75;0.60;;;;;;;17.52;46.60;99426.22;4998777;28;20076;-61
2022/11/18 02:11:55;;;;;;;3.22;0.70;;;;;;;17.51;46.45;99435.34;4997363;28;20432;-61
2022/11/18 02:14:27;;;;;;;2.08;0.70;;;;;;;17.46;46.33;99427.88;4997636;28;20042;-61
2022/11/18 02:16:58;;;;;;;0.85;0.60;;;;;;;17.47;46.71;99436.84;5000113;28;20038;-61
2022/11/18 02:19:24;;;;;;;6.13;0.98;;;;;;;17.45;46.41;99442.44;5002004;28;20038;-61
2022/11/18 02:22:09;;;;;;;2.13;0.70;;;;;;;17.43;46.34;99449.94;5001987;28;20137;-61
2022/11/18 02:24:47;;;;;;;4.55;1.02;;;;;;;17.38;47.08;99457.00;5001767;28;20033;-61
2022/11/18 02:27:49;;;;;;;1.67;0.82;;;;;;;17.39;47.25;99459.50;5002567;28;20157;-61
2022/11/18 02:30:16;;;;;;;1.50;0.55;;;;;;;17.34;47.92;99464.72;5000801;28;20020;-61
2022/11/18 02:32:57;;;;;;;1.17;0.60;;;;;;;17.35;47.73;99460.13;4985039;28;20011;-61
2022/11/18 02:35:29;;;;;;;0.80;0.65;;;;;;;17.33;46.78;99459.50;4984402;28;20460;-61
2022/11/18 02:37:59;;;;;;;8.80;0.57;;;;;;;17.31;47.46;99461.56;5000048;28;20038;-60
2022/11/18 02:40:29;;;;;;;5.25;0.70;;;;;;;17.28;47.30;99472.84;5000638;28;20571;-61
2022/11/18 02:43:03;;;;;;;0.95;0.70;;;;;;;17.25;46.68;99481.38;5001789;28;20098;-61
2022/11/18 02:45:29;;;;;;;4.07;0.70;;;;;;;17.23;47.29;99469.88;5000140;28;20134;-60
2022/11/18 02:47:56;;;;;;;1.80;0.70;;;;;;;17.23;47.50;99476.13;5000179;28;20042;-61
2022/11/18 02:50:24;;;;;;;0.70;0.57;;;;;;;17.23;46.76;99473.44;4983920;28;20034;-60
2022/11/18 02:52:55;;;;;;;1.15;0.68;;;;;;;17.24;46.98;99476.97;4984135;28;20057;-61
2022/11/18 02:55:21;;;;;;;0.93;0.63;;;;;;;17.22;47.67;99479.91;4983887;28;20117;-61
2022/11/18 02:57:47;;;;;;;6.78;1.05;;;;;;;17.24;47.20;99476.97;4983764;28;20113;-60
2022/11/18 03:00:12;;;;;;;5.38;0.75;;;;;;;17.27;47.21;99482.81;4999895;28;20057;-60
2022/11/18 03:02:44;;;;;;;6.22;0.77;;;;;;;17.27;47.23;99481.97;5000116;28;20050;-61
2022/11/18 03:05:16;;;;;;;4.00;0.70;;;;;;;17.26;47.15;99485.72;4998968;28;20038;-61
2022/11/18 03:07:43;;;;;;;2.17;0.98;;;;;;;17.24;48.06;99485.09;4999285;28;20031;-61
2022/11/18 03:10:08;;;;;;;6.93;0.90;;;;;;;17.25;47.37;99489.50;4999678;28;20030;-61
2022/11/18 03:12:58;;;;;;;1.85;0.82;;;;;;;17.23;47.49;99486.13;4999924;28;20030;-61
2022/11/18 03:15:30;;;;;;;1.88;0.60;;;;;;;17.19;46.46;99490.28;5000843;28;20037;-61
2022/11/18 03:18:29;;;;;;;4.60;1.10;;;;;;;17.13;47.03;99494.66;5001241;28;20105;-60
2022/11/18 03:21:04;;;;;;;3.42;0.90;;;;;;;17.10;47.26;99496.94;4948857;28;20092;-61
2022/11/18 03:23:54;;;;;;;2.78;0.57;;;;;;;17.09;47.00;99506.91;4994267;28;20118;-61
2022/11/18 03:26:30;;;;;;;2.63;0.52;;;;;;;17.02;47.34;99502.53;4980403;28;20038;-61
2022/11/18 03:29:18;;;;;;;3.60;0.90;;;;;;;16.94;48.16;99492.72;4979811;28;20449;-61
2022/11/18 03:31:59;;;;;;;1.92;0.50;;;;;;;16.97;47.97;99513.97;4964338;28;20023;-61
2022/11/18 03:34:40;;;;;;;2.35;0.60;;;;;;;16.96;47.24;99511.44;4964555;28;20070;-60
2022/11/18 03:37:08;;;;;;;2.65;1.10;;;;;;;16.95;46.98;99520.59;4964503;28;20456;-60
2022/11/18 03:39:36;;;;;;;2.03;0.70;;;;;;;16.96;48.25;99524.97;4963635;28;20183;-61
2022/11/18 03:42:22;;;;;;;3.70;0.80;;;;;;;16.96;47.65;99519.56;4980455;28;20117;-61
2022/11/18 03:44:51;;;;;;;6.03;0.80;;;;;;;16.94;47.06;99537.88;4980533;28;20047;-61
2022/11/18 03:47:22;;;;;;;4.53;0.63;;;;;;;16.89;47.19;99527.63;4980149;28;20034;-61
2022/11/18 03:49:54;;;;;;;5.47;1.00;;;;;;;16.92;48.10;99542.66;4964388;28;20034;-61
2022/11/18 03:52:25;;;;;;;5.35;0.77;;;;;;;16.89;47.07;99544.72;4964426;28;20034;-60
2022/11/18 03:54:53;;;;;;;5.07;0.63;;;;;;;16.91;46.50;99546.38;4964747;28;20050;-61
2022/11/18 03:57:23;;;;;;;5.10;0.90;;;;;;;16.87;48.20;99544.09;4980460;28;20050;-61
2022/11/18 04:00:10;;;;;;;1.17;0.43;;;;;;;16.88;46.50;99550.34;4980794;28;20014;-61
2022/11/18 04:02:36;;;;;;;6.53;0.85;;;;;;;16.87;47.80;99546.78;4980556;28;20050;-61
2022/11/18 04:05:03;;;;;;;3.20;0.80;;;;;;;16.85;46.75;99548.88;4980081;28;20062;-61
2022/11/18 04:07:42;;;;;;;1.63;0.55;;;;;;;16.85;46.53;99548.88;4963747;28;20034;-61
2022/11/18 04:10:23;;;;;;;4.82;0.63;;;;;;;16.83;47.95;99553.63;4980882;28;20062;-61
2022/11/18 04:13:11;;;;;;;3.17;0.73;;;;;;;16.83;46.63;99559.03;4979885;28;20122;-61
2022/11/18 04:15:38;;;;;;;3.65;0.70;;;;;;;16.82;47.57;99559.25;4979847;28;20035;-61
2022/11/18 04:18:04;;;;;;;1.70;0.50;;;;;;;16.80;47.39;99555.91;4963518;28;20027;-61
2022/11/18 04:20:30;;;;;;;5.82;0.90;;;;;;;16.80;48.09;99564.03;4979831;28;20042;-61
2022/11/18 04:22:56;;;;;;;1.95;0.52;;;;;;;16.80;48.04;99567.56;4963474;28;20046;-61
2022/11/18 04:25:23;;;;;;;2.15;0.73;;;;;;;16.75;47.91;99564.59;4979397;28;20043;-61
2022/11/18 04:27:49;;;;;;;2.38;0.77;;;;;;;16.74;47.91;99571.06;4980025;28;20114;-61
2022/11/18 04:30:14;;;;;;;1.02;0.70;;;;;;;16.73;47.03;99572.09;4964162;28;20058;-61
2022/11/18 04:32:39;;;;;;;1.95;0.40;;;;;;;16.73;47.46;99582.91;4947773;28;20025;-61
2022/11/18 04:35:05;;;;;;;2.60;0.77;;;;;;;16.71;46.90;99585.00;4979530;28;20382;-61
2022/11/18 04:37:30;;;;;;;1.50;0.68;;;;;;;16.69;47.29;99581.66;4980711;28;20034;-61
2022/11/18 04:39:56;;;;;;;6.40;1.02;;;;;;;16.70;48.31;99579.75;4977571;28;20039;-61
2022/11/18 04:42:21;;;;;;;3.20;1.15;;;;;;;16.72;48.21;99589.34;4979201;28;20061;-61
2022/11/18 04:44:47;;;;;;;0.82;0.60;;;;;;;16.74;47.41;99600.81;4978704;28;20047;-61
2022/11/18 04:47:12;;;;;;;1.65;0.70;;;;;;;16.77;47.53;99605.00;4962529;28;20041;-61
2022/11/18 04:49:38;;;;;;;1.00;0.60;;;;;;;16.79;48.58;99608.31;4978560;28;20447;-61
2022/11/18 04:52:04;;;;;;;0.90;0.60;;;;;;;16.79;47.35;99603.75;4962695;28;20042;-61
2022/11/18 04:54:29;;;;;;;3.33;0.80;;;;;;;16.84;48.13;99616.66;4978673;28;20039;-61
2022/11/18 04:56:55;;;;;;;3.05;0.75;;;;;;;16.85;47.87;99618.34;4962484;28;20038;-61
2022/11/18 04:59:24;;;;;;;1.00;0.60;;;;;;;16.86;48.15;99631.66;4962465;28;20042;-61
2022/11/18 05:01:50;;;;;;;0.88;0.60;;;;;;;16.87;47.74;99630.63;4978608;28;20038;-61
2022/11/18 05:04:18;;;;;;;4.13;0.70;;;;;;;16.87;47.41;99630.63;4978377;28;20176;-61
2022/11/18 05:06:43;;;;;;;1.67;0.80;;;;;;;16.89;47.68;99633.13;4978599;28;20045;-61
2022/11/18 05:09:09;;;;;;;2.92;0.73;;;;;;;16.87;47.22;99630.63;4979428;28;20105;-61
2022/11/18 05:14:18;;;;;;;3.50;1.05;;;;;;;16.85;48.14;99640.00;4965486;28;20408;-61
2022/11/18 05:16:44;;;;;;;1.63;1.00;;;;;;;16.81;47.60;99631.44;4979093;28;20034;-61
2022/11/18 05:19:09;;;;;;;1.65;0.82;;;;;;;16.82;48.75;99641.22;4962441;28;20046;-61
2022/11/18 05:21:35;;;;;;;3.33;0.88;;;;;;;16.80;47.64;99640.59;4963040;28;20469;-61
2022/11/18 05:24:01;;;;;;;1.38;0.90;;;;;;;16.78;48.20;99650.75;4980357;28;20058;-61
2022/11/18 05:26:27;;;;;;;3.22;1.00;;;;;;;16.75;47.08;99644.94;4978764;28;20035;-61
2022/11/18 05:28:53;;;;;;;4.30;1.02;;;;;;;16.76;48.29;99652.84;4978876;28;20033;-61
2022/11/18 05:31:18;;;;;;;3.00;1.20;;;;;;;16.73;47.67;99658.63;4980161;28;20475;-61
2022/11/18 05:33:44;;;;;;;2.63;0.63;;;;;;;16.73;47.48;99655.94;4962141;28;20035;-61
2022/11/18 05:36:12;;;;;;;1.02;0.88;;;;;;;16.69;47.70;99654.66;4978655;28;20050;-61
2022/11/18 05:38:38;;;;;;;1.92;0.70;;;;;;;16.72;46.96;99659.66;4980144;28;20022;-61
2022/11/18 05:41:03;;;;;;;2.30;1.05;;;;;;;16.70;47.12;99660.88;4979166;28;20031;-61
2022/11/18 05:43:30;;;;;;;2.90;1.33;;;;;;;16.67;47.64;99664.81;4979889;28;20048;-61
2022/11/18 05:45:55;;;;;;;1.85;1.30;;;;;;;16.62;47.38;99677.25;4979565;28;20109;-61
2022/11/18 05:48:21;;;;;;;2.90;0.90;;;;;;;16.59;46.99;99678.50;4963097;28;20505;-61
2022/11/18 05:50:48;;;;;;;1.83;1.08;;;;;;;16.55;47.12;99677.22;4979088;28;20027;-61
2022/11/18 05:53:14;;;;;;;1.95;1.30;;;;;;;16.54;47.94;99680.94;4963052;28;20035;-61
2022/11/18 05:55:43;;;;;;;3.45;1.17;;;;;;;16.50;48.19;99681.53;4979831;28;20046;-61
2022/11/18 05:58:09;;;;;;;1.02;1.00;;;;;;;16.41;47.42;99680.81;4979798;28;20031;-61
2022/11/18 06:00:34;;;;;;;5.20;1.35;;;;;;;16.43;47.46;99691.44;4980502;28;20058;-61
2022/11/18 06:03:00;;;;;;;3.55;1.48;;;;;;;16.39;47.56;99698.28;4979119;28;20074;-61
2022/11/18 06:05:25;;;;;;;2.63;1.27;;;;;;;16.37;48.14;99700.31;4963086;28;20051;-61
2022/11/18 06:07:52;;;;;;;3.47;1.45;;;;;;;16.32;47.78;99703.59;4947086;28;20035;-61
2022/11/18 06:10:21;;;;;;;1.98;1.20;;;;;;;16.28;48.71;99708.53;4978710;28;20063;-61
2022/11/18 06:12:49;;;;;;;2.38;1.33;;;;;;;16.25;48.17;99713.50;4979133;28;20110;-61
2022/11/18 06:15:21;;;;;;;6.88;1.52;;;;;;;16.23;48.68;99715.56;4962761;28;20038;-60
2022/11/18 06:18:08;;;;;;;4.22;1.27;;;;;;;16.22;48.29;99719.28;4963007;28;20085;-61
2022/11/18 06:20:35;;;;;;;3.47;1.15;;;;;;;16.19;47.93;99720.50;4979898;28;20054;-60
2022/11/18 06:23:01;;;;;;;2.40;1.42;;;;;;;16.17;47.87;99719.03;4979400;28;20046;-60
2022/11/18 06:25:27;;;;;;;2.30;1.00;;;;;;;16.16;48.67;99728.19;4979222;28;20046;-60
2022/11/18 06:27:55;;;;;;;1.83;1.00;;;;;;;16.12;47.85;99718.78;4980220;28;20493;-60
2022/11/18 06:30:21;;;;;;;1.65;1.10;;;;;;;16.12;48.90;99725.03;4963497;28;20026;-60
2022/11/18 06:32:46;;;;;;;2.15;1.30;;;;;;;16.07;48.50;99724.75;4963393;28;20026;-60
2022/11/18 06:35:11;;;;;;;3.30;1.25;;;;;;;16.07;47.64;99726.63;4979170;28;20104;-60
2022/11/18 06:37:37;;;;;;;3.17;1.20;;;;;;;16.07;47.82;99737.44;4979978;28;20030;-60
2022/11/18 06:40:02;;;;;;;3.63;1.23;;;;;;;16.09;48.59;99736.22;4979331;28;20039;-60
2022/11/18 06:45:12;;;;;;;5.63;0.90;;;;;;;16.04;47.64;99743.22;4978834;28;20089;-61
2022/11/18 06:47:38;;;;;;;2.38;1.05;;;;;;;16.03;48.92;99742.38;4979869;28;20035;-61
2022/11/18 06:50:04;;;;;;;1.85;0.95;;;;;;;16.05;48.06;99743.00;4962225;28;20031;-61
2022/11/18 06:52:29;;;;;;;3.17;1.33;;;;;;;16.08;47.45;99744.50;4946496;28;20035;-61
2022/11/18 06:54:55;;;;;;;3.33;1.88;;;;;;;16.09;48.76;99751.56;4961894;28;20046;-61
2022/11/18 06:57:20;;;;;;;6.85;1.38;;;;;;;16.10;48.53;99758.66;4979053;28;20154;-60
2022/11/18 06:59:45;;;;;;;2.55;1.20;;;;;;;16.09;47.87;99759.69;4979341;28;20046;-61
2022/11/18 07:02:11;;;;;;;6.10;1.23;;;;;;;16.08;48.62;99772.34;4946946;28;20042;-61
2022/11/18 07:04:38;;;;;;;3.08;1.23;;;;;;;16.08;48.29;99780.44;4965732;28;20042;-61
2022/11/18 07:07:04;;;;;;;5.65;1.10;;;;;;;16.07;47.52;99781.50;4966366;28;20520;-61
2022/11/18 07:09:29;;;;;;;3.92;1.13;;;;;;;16.06;47.51;99789.78;4966489;28;20488;-61
2022/11/18 07:11:55;;;;;;;5.30;1.23;;;;;;;16.08;47.66;99801.25;4982569;28;20030;-62
2022/11/18 07:14:21;;;;;;;6.60;1.10;;;;;;;16.06;48.59;99795.19;4981871;28;20038;-61
2022/11/18 07:16:46;;;;;;;3.20;1.05;;;;;;;16.08;48.29;99803.94;4965686;28;20142;-61
2022/11/18 07:19:12;;;;;;;4.00;1.13;;;;;;;16.07;48.67;99804.97;4981828;28;20030;-61
2022/11/18 07:21:38;;;;;;;2.78;1.40;;;;;;;16.07;48.25;99807.66;4981329;28;20031;-61
2022/11/18 07:24:06;;;;;;;3.22;1.00;;;;;;;16.06;48.38;99811.38;4965440;28;20443;-61
2022/11/18 07:26:31;;;;;;;6.85;1.10;;;;;;;16.07;47.26;99813.91;4983145;28;20489;-61
2022/11/18 07:28:57;;;;;;;2.72;1.30;;;;;;;16.08;48.80;99815.56;4983256;28;20046;-61
2022/11/18 07:31:22;;;;;;;4.35;1.20;;;;;;;16.09;47.93;99813.72;4982887;28;20489;-61
2022/11/18 07:33:48;;;;;;;1.85;1.17;;;;;;;16.16;48.98;99831.66;4966518;28;20386;-61
2022/11/18 07:36:19;;;;;;;4.25;1.40;;;;;;;16.16;47.59;99828.97;4981382;28;20500;-61
2022/11/18 07:38:45;;;;;;;3.35;1.58;;;;;;;16.19;48.68;99822.38;4983001;28;20031;-62
2022/11/18 07:41:14;;;;;;;6.38;1.85;;;;;;;16.25;47.39;99833.25;4965102;28;20031;-61
2022/11/18 07:46:31;;;;;;;6.03;2.35;;;;;;;16.27;48.03;99825.78;4987492;28;20699;-61
2022/11/18 07:48:58;;;;;;;5.25;2.13;;;;;;;16.30;48.98;99835.38;4985745;28;20409;-61
2022/11/18 07:51:25;;;;;;;8.98;1.30;;;;;;;16.31;48.29;99839.75;4990115;28;20481;-61
2022/11/18 07:53:51;;;;;;;5.65;1.70;;;;;;;16.32;47.74;99844.13;4996367;28;20026;-61
2022/11/18 07:56:17;;;;;;;13.68;6.50;;;;;;;16.33;48.38;99840.41;5000442;28;20138;-62
2022/11/18 07:58:43;;;;;;;3.03;2.08;;;;;;;16.37;48.80;99847.09;4990989;28;20031;-61
2022/11/18 08:01:13;;;;;;;3.53;2.67;;;;;;;16.42;48.21;99850.06;4997390;28;20038;-61
2022/11/18 08:03:40;;;;;;;3.03;1.75;;;;;;;16.48;47.92;99860.13;4995691;28;20037;-61
2022/11/18 08:06:07;;;;;;;4.03;1.52;;;;;;;16.51;47.70;99859.75;4997633;28;20026;-62
2022/11/18 08:08:33;;;;;;;3.90;1.30;;;;;;;16.57;48.76;99860.88;4980611;28;20051;-61
2022/11/18 08:11:00;;;;;;;4.50;1.73;;;;;;;16.59;48.51;99856.94;4989615;28;20023;-62
2022/11/18 08:13:26;;;;;;;4.00;1.33;;;;;;;16.62;47.05;99861.97;4980791;28;20042;-62
2022/11/18 08:15:53;;;;;;;2.33;0.95;;;;;;;16.64;48.33;99868.03;4981566;28;20084;-61
2022/11/18 08:18:18;;;;;;;3.70;1.55;;;;;;;16.69;47.49;99872.88;4966081;28;20480;-61
2022/11/18 08:20:44;;;;;;;5.13;1.50;;;;;;;16.68;47.40;99866.63;4980566;28;20025;-61
2022/11/18 08:23:10;;;;;;;9.02;1.30;;;;;;;16.71;46.98;99882.47;4962711;28;20122;-61
2022/11/18 08:25:35;;;;;;;7.75;1.38;;;;;;;16.75;48.07;99869.41;4994453;28;20382;-61
2022/11/18 08:28:01;;;;;;;3.95;1.05;;;;;;;16.81;47.98;99882.13;4974992;28;20126;-61
2022/11/18 08:30:26;;;;;;;7.82;1.30;;;;;;;16.89;47.20;99873.88;4975344;28;20082;-62
2022/11/18 08:32:51;;;;;;;2.63;1.30;;;;;;;17.01;47.98;99887.75;4975594;28;20059;-62
2022/11/18 08:35:17;;;;;;;4.43;1.00;;;;;;;17.12;46.54;99879.09;4974740;28;20039;-62
2022/11/18 08:37:42;;;;;;;2.55;1.15;;;;;;;17.24;46.97;99877.56;4974989;28;20042;-62
2022/11/18 08:40:08;;;;;;;7.20;1.58;;;;;;;17.36;47.28;99889.53;4974816;28;20441;-62
2022/11/18 08:42:34;;;;;;;7.18;1.20;;;;;;;17.50;47.53;99896.72;4974773;28;20048;-62
2022/11/18 08:44:59;;;;;;;5.93;1.00;;;;;;;17.62;46.70;99886.19;4976280;28;20055;-62
2022/11/18 08:47:24;;;;;;;6.22;1.38;;;;;;;17.73;46.86;99883.78;4991000;28;20050;-61
2022/11/18 08:49:50;;;;;;;3.95;1.25;;;;;;;17.82;46.32;99884.47;4974674;28;20455;-61
2022/11/18 08:52:15;;;;;;;11.95;1.55;;;;;;;17.89;46.75;99886.19;4975165;28;20046;-61
2022/11/18 08:54:40;;;;;;;5.70;1.63;;;;;;;17.94;47.17;99891.84;4990532;28;20485;-61
2022/11/18 08:57:06;;;;;;;1.63;1.30;;;;;;;17.98;47.17;99893.09;4974970;28;20060;-61
2022/11/18 08:59:31;;;;;;;1.67;1.17;;;;;;;18.07;46.18;99901.06;4974433;28;20134;-61
2022/11/18 09:01:57;;;;;;;3.47;0.90;;;;;;;18.12;46.90;99893.22;4990541;28;20500;-62
2022/11/18 09:04:22;;;;;;;4.60;1.27;;;;;;;18.20;46.14;99879.47;4975458;28;20041;-62
2022/11/18 09:06:48;;;;;;;9.35;1.52;;;;;;;18.36;46.68;99889.97;4990227;28;20077;-62
2022/11/18 09:09:13;;;;;;;2.17;1.10;;;;;;;18.52;45.95;99895.06;4974069;28;20037;-62
2022/11/18 09:11:39;;;;;;;5.70;1.08;;;;;;;18.67;45.84;99903.06;4975744;28;20162;-62
2022/11/18 09:14:04;;;;;;;4.63;1.45;;;;;;;18.92;45.75;99913.16;4958214;28;20035;-62
2022/11/18 09:16:31;;;;;;;3.55;1.48;;;;;;;19.21;45.03;99920.06;4990717;28;20035;-62
2022/11/18 09:18:57;;;;;;;7.60;1.20;;;;;;;19.46;44.81;99906.75;4974210;28;20038;-62
2022/11/18 09:21:23;;;;;;;3.50;0.90;;;;;;;19.72;44.52;99909.44;4973877;28;20054;-62
2022/11/18 09:23:48;;;;;;;2.33;1.60;;;;;;;20.04;43.62;99914.03;4990667;28;20377;-62
2022/11/18 09:26:15;;;;;;;5.07;1.13;;;;;;;20.37;43.94;99913.09;4989283;28;20039;-62
2022/11/18 09:28:41;;;;;;;5.35;1.38;;;;;;;20.65;43.61;99922.63;4973754;28;20034;-62
2022/11/18 09:31:12;;;;;;;3.88;1.42;;;;;;;20.99;43.13;99929.56;4973683;28;20039;-62
2022/11/18 09:33:37;;;;;;;6.20;1.63;;;;;;;21.23;43.42;99926.06;4957724;28;20057;-62
2022/11/18 09:36:04;;;;;;;3.88;1.30;;;;;;;21.55;42.29;99929.63;4990303;28;20030;-62
2022/11/18 09:38:30;;;;;;;5.70;1.40;;;;;;;21.81;43.28;99923.06;4973746;28;20134;-62
2022/11/18 09:41:11;;;;;;;6.00;1.10;;;;;;;22.16;42.29;99926.97;4973395;28;20147;-62
2022/11/18 09:43:47;;;;;;;3.30;1.10;;;;;;;22.57;42.11;99929.84;4973331;28;20050;-62
2022/11/18 09:46:39;;;;;;;2.05;1.23;;;;;;;22.99;41.27;99929.94;4989736;28;20043;-62
2022/11/18 09:49:26;;;;;;;5.40;1.08;;;;;;;23.30;41.36;99923.38;4957344;28;20084;-62
2022/11/18 09:51:53;;;;;;;2.33;0.88;;;;;;;23.62;40.59;99927.50;4990061;28;20027;-62
2022/11/18 09:54:21;;;;;;;4.32;1.17;;;;;;;23.80;40.22;99932.06;4957581;28;20485;-62
2022/11/18 09:56:47;;;;;;;6.47;2.08;;;;;;;24.00;40.92;99940.75;4973929;28;20026;-62
2022/11/18 09:59:14;;;;;;;2.10;0.90;;;;;;;24.23;40.39;99940.78;4957444;28;20408;-62
2022/11/18 10:01:40;;;;;;;1.35;0.63;;;;;;;24.46;40.17;99939.88;4989729;28;20030;-62
2022/11/18 10:04:12;;;;;;;4.63;1.00;;;;;;;24.44;40.03;99937.41;4973481;28;20098;-63
2022/11/18 10:06:37;;;;;;;4.68;1.13;;;;;;;24.11;40.12;99953.63;4989591;28;20031;-63
2022/11/18 10:09:19;;;;;;;2.13;0.68;;;;;;;23.64;40.98;99956.31;4973611;28;20042;-63
2022/11/18 10:11:52;;;;;;;6.25;1.40;;;;;;;23.32;41.21;99954.03;4973497;28;20042;-62
2022/11/18 10:14:29;;;;;;;2.63;1.10;;;;;;;22.92;41.15;99964.72;4974665;28;20563;-62
2022/11/18 10:17:27;;;;;;;5.30;1.10;;;;;;;22.44;41.22;99968.22;4974681;28;20417;-62
2022/11/18 10:20:07;;;;;;;5.68;1.17;;;;;;;22.01;41.56;99978.31;4973339;28;20031;-62
2022/11/18 10:22:44;;;;;;;4.43;1.30;;;;;;;21.70;42.19;99975.59;4974406;28;20039;-62
2022/11/18 10:25:12;;;;;;;2.35;0.80;;;;;;;21.37;42.16;99982.16;4973152;28;20039;-62
2022/11/18 10:27:40;;;;;;;7.43;1.13;;;;;;;21.05;42.72;99980.41;4974580;28;20049;-62
2022/11/18 10:30:32;;;;;;;5.50;1.02;;;;;;;20.78;42.92;99987.03;4989892;28;20029;-62
2022/11/18 10:33:03;;;;;;;2.85;0.95;;;;;;;20.54;42.60;99985.88;4970217;28;20039;-62
2022/11/18 10:35:36;;;;;;;6.57;1.17;;;;;;;20.32;42.73;99998.91;4973254;28;20035;-62
2022/11/18 10:38:06;;;;;;;3.72;1.17;;;;;;;20.13;43.08;99997.03;4975382;28;20042;-62
2022/11/18 10:40:33;;;;;;;3.78;0.98;;;;;;;20.00;43.16;99996.19;4978203;28;20078;-62
2022/11/18 10:42:58;;;;;;;2.88;1.00;;;;;;;19.85;43.37;99990.97;4976890;28;20027;-62
2022/11/18 10:45:27;;;;;;;3.58;1.10;;;;;;;19.88;43.20;99996.00;4976486;28;20046;-62
2022/11/18 10:48:16;;;;;;;15.32;5.03;;;;;;;19.78;43.42;100001.03;4976937;28;20139;-62
2022/11/18 10:50:47;;;;;;;5.18;1.73;;;;;;;19.79;43.07;99997.28;4976661;28;20105;-62
2022/11/18 10:53:31;;;;;;;5.43;2.92;;;;;;;19.83;43.49;99997.66;4976750;28;20035;-62
2022/11/18 10:56:01;;;;;;;8.43;3.42;;;;;;;19.87;43.47;100005.22;4992794;28;20505;-62
2022/11/18 10:58:29;;;;;;;6.47;1.77;;;;;;;20.04;43.41;99998.31;4960373;28;20034;-61
2022/11/18 11:01:07;;;;;;;7.78;2.72;;;;;;;20.18;43.11;99997.22;4977807;28;20031;-61
2022/11/18 11:03:37;;;;;;;1.80;1.05;;;;;;;20.33;42.70;99999.75;4992598;28;20038;-62
2022/11/18 11:06:22;;;;;;;6.45;2.63;;;;;;;20.43;43.10;100008.31;4993488;28;20461;-62
2022/11/18 11:08:53;;;;;;;5.53;2.38;;;;;;;20.44;43.62;100000.97;4977828;28;20066;-62
2022/11/18 11:11:28;;;;;;;5.97;1.58;;;;;;;20.62;43.57;100003.84;4976156;28;20059;-62
2022/11/18 11:14:16;;;;;;;4.80;1.33;;;;;;;20.77;42.98;99996.28;4976341;28;20035;-62
2022/11/18 11:16:52;;;;;;;4.03;1.05;;;;;;;20.99;42.26;99994.09;4959908;28;20040;-62
2022/11/18 11:19:22;;;;;;;6.95;1.63;;;;;;;21.02;42.97;99989.00;4960186;28;20035;-62
2022/11/18 11:21:47;;;;;;;5.78;1.02;;;;;;;20.99;43.25;99994.91;4960074;28;20102;-62
2022/11/18 11:24:13;;;;;;;0.93;0.68;;;;;;;21.22;41.88;99997.94;4992155;28;20125;-62
2022/11/18 11:26:47;;;;;;;3.92;1.60;;;;;;;21.46;41.83;100005.38;4976690;28;20488;-62
2022/11/18 11:29:19;;;;;;;6.75;1.08;;;;;;;21.65;42.18;100008.16;4977116;28;20117;-61
2022/11/18 11:32:05;;;;;;;3.67;1.00;;;;;;;21.66;41.87;100009.84;4975977;28;20117;-61
2022/11/18 11:34:40;;;;;;;4.05;1.20;;;;;;;21.99;42.03;100007.72;4975879;28;20552;-62
2022/11/18 11:37:31;;;;;;;3.15;0.60;;;;;;;22.35;40.86;100007.78;4992161;28;20046;-62
2022/11/18 11:40:20;;;;;;;7.63;3.88;;;;;;;22.38;41.01;100009.22;4975629;28;20062;-61
2022/11/18 11:42:52;;;;;;;9.10;4.20;;;;;;;22.75;40.86;100007.38;4978564;28;20046;-61
2022/11/18 11:45:31;;;;;;;3.97;0.77;;;;;;;23.09;40.41;100001.25;4979103;28;20425;-61
2022/11/18 11:48:24;;;;;;;6.93;1.15;;;;;;;23.06;41.34;100009.94;4977973;28;20027;-62
2022/11/18 11:50:52;;;;;;;5.55;2.35;;;;;;;23.01;40.68;100012.50;4975191;28;20038;-64
2022/11/18 11:53:50;;;;;;;4.15;1.42;;;;;;;23.05;40.62;100014.56;4976585;28;20042;-63
2022/11/18 11:56:31;;;;;;;4.75;0.93;;;;;;;23.17;41.32;100017.34;4976504;28;20042;-63